Strona główna
METAR-TAF:

METAR-TAF

Lotnisko :

Port Meadville Airport

Meadville, Pensylwania, Stany Zjednoczone

Szerokość geograficzna: 41-37-35N, Długość geograficzna: 080-12-53W, wysokość: 427 m

Aktualna obserwacja pogody

Raport powstał 1 godzina i 0 minut temu, godzina 21:53 UTC
Wiatr 6 kt od zachodnio-południowy zachód
Temperatura -2°C
Wilgotność 74%
Ciśnienie 1017 hPa
Widzialność: 16.1 km
Zachmurzenie całkowite na wysokości 1400 ft

METAR: KGKJ 102153Z AUTO 24006KT 10SM OVC014 M02/M06 A3004 RMK AO2 SLP183 T10221056 TSNO

czas: 17:53 (22:53 UTC)


TAF: brakujący

Obserwacja i prognoza pogody dla ponad 4000 lotnisk (raport METAR i TAF).

Dostępne stacje oznaczono żółtymi i czerwonymi punktami na mapie.

Najedź kursorem aby zobaczyć nazwę stacji.

Kliknij aby zobaczyć obserwacje i prognozy pogody.

Aby zmienić mapę: kliknij na zielony przycisk z czarnym krzyżykiem, aby powiększyć; na zielony przycisk z myślnikiem, aby pomniejszyć; na zielone strzałki, aby przejść do map sąsiednich.


METAR-TAF: